Enter the Airport ICAO Code

Search by Airport or City

Current Weather

LGAV | Athens International Airport (Eleftherios Venizelos Airport)

Athens, Greece

Last Update 4 Minutes Ago

Mostly Cloudy Sky

Temperature of 11 ºC

Light Winds from North

Temperature

11 ºC

Dew Point Temperature

07 ºC

Relative Humidity

76.42 %

Wind Direction

North (350º, Without Significant Variations)

Wind Velocity

6 km/h (03 kt)

Gusts

None

Visibility

Greater than 10 Kilometers

Sea Level Pressure

1021 hPa (Hectopascals)

Layers of Clouds

5% to 30% of Sky Covered from 762 mts (2500 ft) Above Ground Level.

60% to 90% of Sky Covered from 1219 mts (4000 ft) Above Ground Level.

METAR LGAV 022150Z 35003KT 9999 FEW025 BKN040 11/07 Q1021 NOSIG

Weather Forecast

LGAV | Athens International Airport (Eleftherios Venizelos Airport)

Athens, Greece

Forecast valid for the next 20 Hours

From now on it is expected:

Partly Cloudy Sky

Moderate Winds from North

Maximum Temperature

No Data

Minimum Temperature

No Data

TAF LGAV 021700Z 0218/0318 02010KT 9999 FEW020 SCT035